sensor_id;sensor_type;location;lat;lon;timestamp;P1;durP1;ratioP1;P2;durP2;ratioP2
2257;SDS011;1136;51.574;7.706;2023-04-24T00:01:54;3.40;;;2.60;;
2257;SDS011;1136;51.574;7.706;2023-04-24T00:04:21;6.90;;;3.03;;
2257;SDS011;1136;51.574;7.706;2023-04-24T00:06:48;10.73;;;6.30;;
2257;SDS011;1136;51.574;7.706;2023-04-24T00:09:20;9.07;;;5.07;;
2257;SDS011;1136;51.574;7.706;2023-04-24T00:11:46;15.83;;;7.50;;
2257;SDS011;1136;51.574;7.706;2023-04-24T00:14:13;10.80;;;6.60;;
2257;SDS011;1136;51.574;7.706;2023-04-24T00:16:39;11.20;;;4.80;;
2257;SDS011;1136;51.574;7.706;2023-04-24T00:19:06;12.70;;;6.33;;
2257;SDS011;1136;51.574;7.706;2023-04-24T00:21:33;6.80;;;3.87;;
2257;SDS011;1136;51.574;7.706;2023-04-24T00:23:59;11.53;;;6.27;;
2257;SDS011;1136;51.574;7.706;2023-04-24T00:26:26;7.03;;;2.60;;
2257;SDS011;1136;51.574;7.706;2023-04-24T00:28:53;3.30;;;2.63;;
2257;SDS011;1136;51.574;7.706;2023-04-24T00:31:19;2.63;;;1.93;;
2257;SDS011;1136;51.574;7.706;2023-04-24T00:33:46;3.50;;;2.27;;
2257;SDS011;1136;51.574;7.706;2023-04-24T00:36:13;3.73;;;1.40;;
2257;SDS011;1136;51.574;7.706;2023-04-24T00:38:40;3.20;;;1.30;;
2257;SDS011;1136;51.574;7.706;2023-04-24T00:41:06;1.03;;;0.90;;
2257;SDS011;1136;51.574;7.706;2023-04-24T00:43:33;1.40;;;1.30;;
2257;SDS011;1136;51.574;7.706;2023-04-24T00:46:00;1.20;;;1.00;;
2257;SDS011;1136;51.574;7.706;2023-04-24T00:48:28;2.33;;;1.17;;
2257;SDS011;1136;51.574;7.706;2023-04-24T00:50:54;1.13;;;0.90;;
2257;SDS011;1136;51.574;7.706;2023-04-24T00:53:21;2.43;;;1.20;;
2257;SDS011;1136;51.574;7.706;2023-04-24T00:55:48;1.30;;;1.20;;
2257;SDS011;1136;51.574;7.706;2023-04-24T00:58:14;1.80;;;1.20;;
2257;SDS011;1136;51.574;7.706;2023-04-24T01:00:41;1.30;;;1.20;;
2257;SDS011;1136;51.574;7.706;2023-04-24T01:03:08;1.93;;;1.30;;
2257;SDS011;1136;51.574;7.706;2023-04-24T01:05:35;1.73;;;1.63;;
2257;SDS011;1136;51.574;7.706;2023-04-24T01:08:01;1.30;;;1.20;;
2257;SDS011;1136;51.574;7.706;2023-04-24T01:10:29;1.87;;;1.60;;
2257;SDS011;1136;51.574;7.706;2023-04-24T01:12:58;1.93;;;1.80;;
2257;SDS011;1136;51.574;7.706;2023-04-24T01:15:26;2.20;;;2.00;;
2257;SDS011;1136;51.574;7.706;2023-04-24T01:17:52;1.60;;;1.50;;
2257;SDS011;1136;51.574;7.706;2023-04-24T01:20:19;2.17;;;2.07;;
2257;SDS011;1136;51.574;7.706;2023-04-24T01:22:47;2.20;;;2.00;;
2257;SDS011;1136;51.574;7.706;2023-04-24T01:25:14;2.37;;;2.27;;
2257;SDS011;1136;51.574;7.706;2023-04-24T01:27:40;3.17;;;2.83;;
2257;SDS011;1136;51.574;7.706;2023-04-24T01:30:07;2.77;;;2.27;;
2257;SDS011;1136;51.574;7.706;2023-04-24T01:32:35;3.50;;;1.87;;
2257;SDS011;1136;51.574;7.706;2023-04-24T01:35:02;1.60;;;1.50;;
2257;SDS011;1136;51.574;7.706;2023-04-24T01:37:29;1.83;;;1.73;;
2257;SDS011;1136;51.574;7.706;2023-04-24T01:39:57;1.80;;;1.70;;
2257;SDS011;1136;51.574;7.706;2023-04-24T01:42:24;2.30;;;2.20;;
2257;SDS011;1136;51.574;7.706;2023-04-24T01:44:51;1.83;;;1.20;;
2257;SDS011;1136;51.574;7.706;2023-04-24T01:47:17;2.93;;;1.70;;
2257;SDS011;1136;51.574;7.706;2023-04-24T01:49:44;2.40;;;1.50;;
2257;SDS011;1136;51.574;7.706;2023-04-24T01:52:11;3.00;;;1.70;;
2257;SDS011;1136;51.574;7.706;2023-04-24T01:54:38;2.80;;;1.70;;
2257;SDS011;1136;51.574;7.706;2023-04-24T01:57:05;3.57;;;1.37;;
2257;SDS011;1136;51.574;7.706;2023-04-24T01:59:31;1.93;;;1.80;;
2257;SDS011;1136;51.574;7.706;2023-04-24T02:01:59;2.13;;;1.80;;
2257;SDS011;1136;51.574;7.706;2023-04-24T02:04:26;2.00;;;1.80;;
2257;SDS011;1136;51.574;7.706;2023-04-24T02:06:53;1.60;;;1.50;;
2257;SDS011;1136;51.574;7.706;2023-04-24T02:09:19;1.50;;;1.40;;
2257;SDS011;1136;51.574;7.706;2023-04-24T02:11:46;1.57;;;1.47;;
2257;SDS011;1136;51.574;7.706;2023-04-24T02:14:12;4.10;;;1.90;;
2257;SDS011;1136;51.574;7.706;2023-04-24T02:16:39;2.00;;;1.80;;
2257;SDS011;1136;51.574;7.706;2023-04-24T02:19:06;1.70;;;1.60;;
2257;SDS011;1136;51.574;7.706;2023-04-24T02:21:32;1.60;;;1.50;;
2257;SDS011;1136;51.574;7.706;2023-04-24T02:23:59;3.33;;;1.93;;
2257;SDS011;1136;51.574;7.706;2023-04-24T02:26:26;4.10;;;1.90;;
2257;SDS011;1136;51.574;7.706;2023-04-24T02:28:52;4.40;;;2.07;;
2257;SDS011;1136;51.574;7.706;2023-04-24T02:31:19;3.53;;;2.40;;
2257;SDS011;1136;51.574;7.706;2023-04-24T02:33:46;2.20;;;2.10;;
2257;SDS011;1136;51.574;7.706;2023-04-24T02:36:12;1.90;;;1.80;;
2257;SDS011;1136;51.574;7.706;2023-04-24T02:38:39;2.87;;;2.30;;
2257;SDS011;1136;51.574;7.706;2023-04-24T02:41:06;2.30;;;2.10;;
2257;SDS011;1136;51.574;7.706;2023-04-24T02:43:33;4.20;;;2.80;;
2257;SDS011;1136;51.574;7.706;2023-04-24T02:45:59;3.27;;;2.97;;
2257;SDS011;1136;51.574;7.706;2023-04-24T02:48:26;2.60;;;2.40;;
2257;SDS011;1136;51.574;7.706;2023-04-24T02:50:53;2.73;;;2.60;;
2257;SDS011;1136;51.574;7.706;2023-04-24T02:53:19;2.37;;;2.07;;
2257;SDS011;1136;51.574;7.706;2023-04-24T02:55:46;2.37;;;2.20;;
2257;SDS011;1136;51.574;7.706;2023-04-24T02:58:12;2.80;;;2.67;;
2257;SDS011;1136;51.574;7.706;2023-04-24T03:00:39;2.63;;;2.43;;
2257;SDS011;1136;51.574;7.706;2023-04-24T03:03:06;2.80;;;2.50;;
2257;SDS011;1136;51.574;7.706;2023-04-24T03:05:33;3.00;;;2.37;;
2257;SDS011;1136;51.574;7.706;2023-04-24T03:08:00;2.03;;;1.93;;
2257;SDS011;1136;51.574;7.706;2023-04-24T03:10:26;2.53;;;2.33;;
2257;SDS011;1136;51.574;7.706;2023-04-24T03:12:52;3.37;;;2.70;;
2257;SDS011;1136;51.574;7.706;2023-04-24T03:15:21;2.10;;;2.00;;
2257;SDS011;1136;51.574;7.706;2023-04-24T03:17:47;3.20;;;2.50;;
2257;SDS011;1136;51.574;7.706;2023-04-24T03:20:14;3.00;;;2.80;;
2257;SDS011;1136;51.574;7.706;2023-04-24T03:22:41;3.30;;;3.00;;
2257;SDS011;1136;51.574;7.706;2023-04-24T03:25:08;5.17;;;3.83;;
2257;SDS011;1136;51.574;7.706;2023-04-24T03:27:35;4.27;;;3.87;;
2257;SDS011;1136;51.574;7.706;2023-04-24T03:30:02;6.10;;;5.17;;
2257;SDS011;1136;51.574;7.706;2023-04-24T03:32:29;4.37;;;4.00;;
2257;SDS011;1136;51.574;7.706;2023-04-24T03:34:56;5.93;;;5.43;;
2257;SDS011;1136;51.574;7.706;2023-04-24T03:37:23;6.50;;;5.90;;
2257;SDS011;1136;51.574;7.706;2023-04-24T03:39:50;8.20;;;7.40;;
2257;SDS011;1136;51.574;7.706;2023-04-24T03:42:16;8.57;;;7.77;;
2257;SDS011;1136;51.574;7.706;2023-04-24T03:44:43;8.97;;;8.17;;
2257;SDS011;1136;51.574;7.706;2023-04-24T03:47:09;7.87;;;7.07;;
2257;SDS011;1136;51.574;7.706;2023-04-24T03:49:36;13.07;;;8.50;;
2257;SDS011;1136;51.574;7.706;2023-04-24T03:52:02;12.63;;;9.20;;
2257;SDS011;1136;51.574;7.706;2023-04-24T03:54:29;8.60;;;7.80;;
2257;SDS011;1136;51.574;7.706;2023-04-24T03:56:55;10.30;;;8.17;;
2257;SDS011;1136;51.574;7.706;2023-04-24T03:59:22;9.23;;;8.23;;
2257;SDS011;1136;51.574;7.706;2023-04-24T04:01:49;11.20;;;9.67;;
2257;SDS011;1136;51.574;7.706;2023-04-24T04:04:15;9.40;;;8.40;;
2257;SDS011;1136;51.574;7.706;2023-04-24T04:06:42;9.10;;;8.20;;
2257;SDS011;1136;51.574;7.706;2023-04-24T04:09:10;9.90;;;8.50;;
2257;SDS011;1136;51.574;7.706;2023-04-24T04:11:37;12.60;;;10.07;;
2257;SDS011;1136;51.574;7.706;2023-04-24T04:14:03;10.40;;;9.40;;
2257;SDS011;1136;51.574;7.706;2023-04-24T04:16:30;11.67;;;9.97;;
2257;SDS011;1136;51.574;7.706;2023-04-24T04:18:57;9.80;;;8.80;;
2257;SDS011;1136;51.574;7.706;2023-04-24T04:21:23;12.10;;;10.90;;
2257;SDS011;1136;51.574;7.706;2023-04-24T04:23:50;16.63;;;11.27;;
2257;SDS011;1136;51.574;7.706;2023-04-24T04:26:17;12.20;;;10.93;;
2257;SDS011;1136;51.574;7.706;2023-04-24T04:28:45;16.33;;;11.43;;
2257;SDS011;1136;51.574;7.706;2023-04-24T04:31:11;14.83;;;12.10;;
2257;SDS011;1136;51.574;7.706;2023-04-24T04:33:39;21.20;;;14.57;;
2257;SDS011;1136;51.574;7.706;2023-04-24T04:36:05;17.47;;;14.03;;
2257;SDS011;1136;51.574;7.706;2023-04-24T04:38:32;14.40;;;13.00;;
2257;SDS011;1136;51.574;7.706;2023-04-24T04:40:59;20.03;;;15.67;;
2257;SDS011;1136;51.574;7.706;2023-04-24T04:43:26;15.77;;;14.00;;
2257;SDS011;1136;51.574;7.706;2023-04-24T04:45:53;15.10;;;13.00;;
2257;SDS011;1136;51.574;7.706;2023-04-24T04:48:21;15.07;;;13.43;;
2257;SDS011;1136;51.574;7.706;2023-04-24T04:50:48;15.60;;;14.10;;
2257;SDS011;1136;51.574;7.706;2023-04-24T04:53:14;15.00;;;13.40;;
2257;SDS011;1136;51.574;7.706;2023-04-24T04:55:41;13.47;;;12.03;;
2257;SDS011;1136;51.574;7.706;2023-04-24T04:58:08;20.10;;;13.40;;
2257;SDS011;1136;51.574;7.706;2023-04-24T05:00:35;14.03;;;12.53;;
2257;SDS011;1136;51.574;7.706;2023-04-24T05:03:03;13.33;;;11.57;;
2257;SDS011;1136;51.574;7.706;2023-04-24T05:05:46;15.23;;;12.07;;
2257;SDS011;1136;51.574;7.706;2023-04-24T05:08:12;14.70;;;12.10;;
2257;SDS011;1136;51.574;7.706;2023-04-24T05:10:52;14.07;;;12.67;;
2257;SDS011;1136;51.574;7.706;2023-04-24T05:13:18;13.97;;;12.57;;
2257;SDS011;1136;51.574;7.706;2023-04-24T05:16:01;14.77;;;13.47;;
2257;SDS011;1136;51.574;7.706;2023-04-24T05:18:28;17.93;;;13.03;;
2257;SDS011;1136;51.574;7.706;2023-04-24T05:20:54;15.23;;;13.73;;
2257;SDS011;1136;51.574;7.706;2023-04-24T05:23:21;17.03;;;13.80;;
2257;SDS011;1136;51.574;7.706;2023-04-24T05:25:48;21.73;;;13.13;;
2257;SDS011;1136;51.574;7.706;2023-04-24T05:28:14;17.20;;;13.23;;
2257;SDS011;1136;51.574;7.706;2023-04-24T05:30:41;15.53;;;13.93;;
2257;SDS011;1136;51.574;7.706;2023-04-24T05:33:08;18.60;;;13.03;;
2257;SDS011;1136;51.574;7.706;2023-04-24T05:35:35;15.30;;;13.30;;
2257;SDS011;1136;51.574;7.706;2023-04-24T05:38:01;15.60;;;14.10;;
2257;SDS011;1136;51.574;7.706;2023-04-24T05:40:28;16.60;;;13.40;;
2257;SDS011;1136;51.574;7.706;2023-04-24T05:42:55;16.80;;;14.83;;
2257;SDS011;1136;51.574;7.706;2023-04-24T05:45:21;20.73;;;14.90;;
2257;SDS011;1136;51.574;7.706;2023-04-24T05:47:48;18.20;;;14.00;;
2257;SDS011;1136;51.574;7.706;2023-04-24T05:50:14;16.10;;;12.30;;
2257;SDS011;1136;51.574;7.706;2023-04-24T05:52:41;13.30;;;12.00;;
2257;SDS011;1136;51.574;7.706;2023-04-24T05:55:08;12.80;;;11.60;;
2257;SDS011;1136;51.574;7.706;2023-04-24T05:57:34;12.47;;;10.60;;
2257;SDS011;1136;51.574;7.706;2023-04-24T06:00:01;12.77;;;11.27;;
2257;SDS011;1136;51.574;7.706;2023-04-24T06:02:28;12.13;;;11.03;;
2257;SDS011;1136;51.574;7.706;2023-04-24T06:04:58;12.30;;;9.80;;
2257;SDS011;1136;51.574;7.706;2023-04-24T06:07:26;12.40;;;9.93;;
2257;SDS011;1136;51.574;7.706;2023-04-24T06:09:52;13.90;;;9.93;;
2257;SDS011;1136;51.574;7.706;2023-04-24T06:12:19;12.13;;;10.30;;
2257;SDS011;1136;51.574;7.706;2023-04-24T06:14:45;8.97;;;8.17;;
2257;SDS011;1136;51.574;7.706;2023-04-24T06:17:12;9.20;;;8.27;;
2257;SDS011;1136;51.574;7.706;2023-04-24T06:19:38;9.50;;;7.90;;
2257;SDS011;1136;51.574;7.706;2023-04-24T06:22:05;14.60;;;7.50;;
2257;SDS011;1136;51.574;7.706;2023-04-24T06:24:34;8.40;;;7.63;;
2257;SDS011;1136;51.574;7.706;2023-04-24T06:27:01;9.83;;;8.93;;
2257;SDS011;1136;51.574;7.706;2023-04-24T06:29:28;9.13;;;8.20;;
2257;SDS011;1136;51.574;7.706;2023-04-24T06:31:54;10.40;;;9.40;;
2257;SDS011;1136;51.574;7.706;2023-04-24T06:34:21;10.00;;;8.90;;
2257;SDS011;1136;51.574;7.706;2023-04-24T06:36:47;10.50;;;9.40;;
2257;SDS011;1136;51.574;7.706;2023-04-24T06:39:14;10.43;;;9.37;;
2257;SDS011;1136;51.574;7.706;2023-04-24T06:41:40;10.17;;;9.07;;
2257;SDS011;1136;51.574;7.706;2023-04-24T06:44:07;13.17;;;9.60;;
2257;SDS011;1136;51.574;7.706;2023-04-24T06:46:33;12.77;;;8.30;;
2257;SDS011;1136;51.574;7.706;2023-04-24T06:49:00;9.43;;;8.43;;
2257;SDS011;1136;51.574;7.706;2023-04-24T06:51:27;10.00;;;9.00;;
2257;SDS011;1136;51.574;7.706;2023-04-24T06:53:54;8.73;;;7.83;;
2257;SDS011;1136;51.574;7.706;2023-04-24T06:56:22;9.03;;;7.70;;
2257;SDS011;1136;51.574;7.706;2023-04-24T06:58:48;9.43;;;7.53;;
2257;SDS011;1136;51.574;7.706;2023-04-24T07:01:15;8.27;;;7.47;;
2257;SDS011;1136;51.574;7.706;2023-04-24T07:03:41;7.77;;;7.07;;
2257;SDS011;1136;51.574;7.706;2023-04-24T07:06:09;8.60;;;5.77;;
2257;SDS011;1136;51.574;7.706;2023-04-24T07:08:36;6.40;;;5.80;;
2257;SDS011;1136;51.574;7.706;2023-04-24T07:11:03;10.57;;;7.73;;
2257;SDS011;1136;51.574;7.706;2023-04-24T07:13:30;12.93;;;9.10;;
2257;SDS011;1136;51.574;7.706;2023-04-24T07:15:56;13.77;;;7.63;;
2257;SDS011;1136;51.574;7.706;2023-04-24T07:18:23;8.00;;;5.33;;
2257;SDS011;1136;51.574;7.706;2023-04-24T07:20:50;6.70;;;6.00;;
2257;SDS011;1136;51.574;7.706;2023-04-24T07:23:17;5.03;;;4.63;;
2257;SDS011;1136;51.574;7.706;2023-04-24T07:25:44;6.23;;;5.27;;
2257;SDS011;1136;51.574;7.706;2023-04-24T07:28:10;6.30;;;5.47;;
2257;SDS011;1136;51.574;7.706;2023-04-24T07:30:37;8.87;;;5.03;;
2257;SDS011;1136;51.574;7.706;2023-04-24T07:33:04;5.67;;;5.17;;
2257;SDS011;1136;51.574;7.706;2023-04-24T07:35:30;6.27;;;5.43;;
2257;SDS011;1136;51.574;7.706;2023-04-24T07:37:57;5.07;;;4.33;;
2257;SDS011;1136;51.574;7.706;2023-04-24T07:40:23;8.87;;;5.60;;
2257;SDS011;1136;51.574;7.706;2023-04-24T07:42:50;4.90;;;4.50;;
2257;SDS011;1136;51.574;7.706;2023-04-24T07:45:17;6.30;;;4.90;;
2257;SDS011;1136;51.574;7.706;2023-04-24T07:47:44;5.50;;;4.73;;
2257;SDS011;1136;51.574;7.706;2023-04-24T07:50:12;4.47;;;4.07;;
2257;SDS011;1136;51.574;7.706;2023-04-24T07:52:39;5.10;;;4.00;;
2257;SDS011;1136;51.574;7.706;2023-04-24T07:55:06;4.17;;;3.87;;
2257;SDS011;1136;51.574;7.706;2023-04-24T07:57:33;4.27;;;3.87;;
2257;SDS011;1136;51.574;7.706;2023-04-24T08:00:00;5.17;;;4.70;;
2257;SDS011;1136;51.574;7.706;2023-04-24T08:02:27;4.67;;;4.33;;
2257;SDS011;1136;51.574;7.706;2023-04-24T08:04:53;5.53;;;4.40;;
2257;SDS011;1136;51.574;7.706;2023-04-24T08:07:21;4.27;;;3.97;;
2257;SDS011;1136;51.574;7.706;2023-04-24T08:09:48;4.63;;;4.27;;
2257;SDS011;1136;51.574;7.706;2023-04-24T08:12:14;4.50;;;4.10;;
2257;SDS011;1136;51.574;7.706;2023-04-24T08:14:41;5.30;;;4.90;;
2257;SDS011;1136;51.574;7.706;2023-04-24T08:17:08;3.97;;;3.67;;
2257;SDS011;1136;51.574;7.706;2023-04-24T08:19:34;3.90;;;3.60;;
2257;SDS011;1136;51.574;7.706;2023-04-24T08:22:01;3.77;;;3.47;;
2257;SDS011;1136;51.574;7.706;2023-04-24T08:24:28;3.10;;;2.90;;
2257;SDS011;1136;51.574;7.706;2023-04-24T08:26:55;6.20;;;3.60;;
2257;SDS011;1136;51.574;7.706;2023-04-24T08:29:24;4.03;;;2.90;;
2257;SDS011;1136;51.574;7.706;2023-04-24T08:31:50;4.40;;;3.23;;
2257;SDS011;1136;51.574;7.706;2023-04-24T08:34:17;3.00;;;2.80;;
2257;SDS011;1136;51.574;7.706;2023-04-24T08:36:44;3.50;;;3.20;;
2257;SDS011;1136;51.574;7.706;2023-04-24T08:39:13;3.47;;;3.17;;
2257;SDS011;1136;51.574;7.706;2023-04-24T08:41:41;4.60;;;4.13;;
2257;SDS011;1136;51.574;7.706;2023-04-24T08:44:09;3.37;;;3.17;;
2257;SDS011;1136;51.574;7.706;2023-04-24T08:46:36;6.57;;;3.20;;
2257;SDS011;1136;51.574;7.706;2023-04-24T08:49:03;4.90;;;3.03;;
2257;SDS011;1136;51.574;7.706;2023-04-24T08:51:30;4.13;;;2.53;;
2257;SDS011;1136;51.574;7.706;2023-04-24T08:53:57;1.70;;;1.60;;
2257;SDS011;1136;51.574;7.706;2023-04-24T08:56:24;1.70;;;1.60;;
2257;SDS011;1136;51.574;7.706;2023-04-24T08:58:51;1.00;;;1.00;;
2257;SDS011;1136;51.574;7.706;2023-04-24T09:01:18;0.80;;;0.73;;
2257;SDS011;1136;51.574;7.706;2023-04-24T09:03:47;0.90;;;0.80;;
2257;SDS011;1136;51.574;7.706;2023-04-24T09:06:16;1.37;;;0.90;;
2257;SDS011;1136;51.574;7.706;2023-04-24T09:08:44;1.23;;;0.70;;
2257;SDS011;1136;51.574;7.706;2023-04-24T09:11:11;0.80;;;0.70;;
2257;SDS011;1136;51.574;7.706;2023-04-24T09:13:38;1.33;;;0.90;;
2257;SDS011;1136;51.574;7.706;2023-04-24T09:16:05;1.67;;;0.90;;
2257;SDS011;1136;51.574;7.706;2023-04-24T09:18:31;1.53;;;1.13;;
2257;SDS011;1136;51.574;7.706;2023-04-24T09:20:59;0.80;;;0.80;;
2257;SDS011;1136;51.574;7.706;2023-04-24T09:23:30;1.00;;;0.90;;
2257;SDS011;1136;51.574;7.706;2023-04-24T09:26:08;0.83;;;0.83;;
2257;SDS011;1136;51.574;7.706;2023-04-24T09:28:37;1.33;;;0.90;;
2257;SDS011;1136;51.574;7.706;2023-04-24T09:31:14;0.80;;;0.73;;
2257;SDS011;1136;51.574;7.706;2023-04-24T09:33:58;0.90;;;0.90;;
2257;SDS011;1136;51.574;7.706;2023-04-24T09:36:32;1.03;;;0.97;;
2257;SDS011;1136;51.574;7.706;2023-04-24T09:39:05;0.90;;;0.80;;
2257;SDS011;1136;51.574;7.706;2023-04-24T09:44:17;1.17;;;0.87;;
2257;SDS011;1136;51.574;7.706;2023-04-24T09:46:44;1.63;;;1.07;;
2257;SDS011;1136;51.574;7.706;2023-04-24T09:49:13;1.50;;;1.00;;
2257;SDS011;1136;51.574;7.706;2023-04-24T09:51:41;3.30;;;1.20;;
2257;SDS011;1136;51.574;7.706;2023-04-24T09:54:18;1.20;;;1.10;;
2257;SDS011;1136;51.574;7.706;2023-04-24T09:56:49;1.60;;;1.50;;
2257;SDS011;1136;51.574;7.706;2023-04-24T09:59:17;1.93;;;1.83;;
2257;SDS011;1136;51.574;7.706;2023-04-24T10:01:45;2.07;;;1.93;;
2257;SDS011;1136;51.574;7.706;2023-04-24T10:04:16;2.20;;;2.10;;
2257;SDS011;1136;51.574;7.706;2023-04-24T10:06:47;3.03;;;2.80;;
2257;SDS011;1136;51.574;7.706;2023-04-24T10:09:18;3.27;;;3.03;;
2257;SDS011;1136;51.574;7.706;2023-04-24T10:11:47;3.50;;;3.20;;
2257;SDS011;1136;51.574;7.706;2023-04-24T10:14:15;3.47;;;3.27;;
2257;SDS011;1136;51.574;7.706;2023-04-24T10:16:43;4.60;;;4.30;;
2257;SDS011;1136;51.574;7.706;2023-04-24T10:19:16;4.33;;;4.00;;
2257;SDS011;1136;51.574;7.706;2023-04-24T10:21:44;4.43;;;3.40;;
2257;SDS011;1136;51.574;7.706;2023-04-24T10:24:13;4.80;;;4.50;;
2257;SDS011;1136;51.574;7.706;2023-04-24T10:26:42;5.50;;;5.10;;
2257;SDS011;1136;51.574;7.706;2023-04-24T10:29:10;4.97;;;4.53;;
2257;SDS011;1136;51.574;7.706;2023-04-24T10:31:39;4.40;;;4.00;;
2257;SDS011;1136;51.574;7.706;2023-04-24T10:34:07;3.87;;;3.67;;
2257;SDS011;1136;51.574;7.706;2023-04-24T10:36:35;4.70;;;3.10;;
2257;SDS011;1136;51.574;7.706;2023-04-24T10:39:06;3.37;;;2.70;;
2257;SDS011;1136;51.574;7.706;2023-04-24T10:41:36;3.40;;;2.83;;
2257;SDS011;1136;51.574;7.706;2023-04-24T10:44:04;2.47;;;2.30;;
2257;SDS011;1136;51.574;7.706;2023-04-24T10:46:34;3.40;;;3.20;;
2257;SDS011;1136;51.574;7.706;2023-04-24T10:49:07;2.87;;;2.67;;
2257;SDS011;1136;51.574;7.706;2023-04-24T10:51:50;3.40;;;2.80;;
2257;SDS011;1136;51.574;7.706;2023-04-24T10:54:26;3.53;;;3.30;;
2257;SDS011;1136;51.574;7.706;2023-04-24T10:57:25;3.00;;;2.73;;
2257;SDS011;1136;51.574;7.706;2023-04-24T10:59:51;2.93;;;2.70;;
2257;SDS011;1136;51.574;7.706;2023-04-24T11:02:19;3.40;;;3.10;;
2257;SDS011;1136;51.574;7.706;2023-04-24T11:05:05;3.37;;;3.10;;
2257;SDS011;1136;51.574;7.706;2023-04-24T11:10:40;3.80;;;3.50;;
2257;SDS011;1136;51.574;7.706;2023-04-24T11:13:10;3.80;;;3.50;;
2257;SDS011;1136;51.574;7.706;2023-04-24T11:15:40;3.50;;;3.20;;
2257;SDS011;1136;51.574;7.706;2023-04-24T11:18:14;4.03;;;3.73;;
2257;SDS011;1136;51.574;7.706;2023-04-24T11:20:43;4.83;;;4.30;;
2257;SDS011;1136;51.574;7.706;2023-04-24T11:23:11;5.03;;;4.47;;
2257;SDS011;1136;51.574;7.706;2023-04-24T11:25:38;5.13;;;4.73;;
2257;SDS011;1136;51.574;7.706;2023-04-24T11:28:05;5.23;;;4.73;;
2257;SDS011;1136;51.574;7.706;2023-04-24T11:30:32;9.83;;;5.70;;
2257;SDS011;1136;51.574;7.706;2023-04-24T11:33:03;7.43;;;5.83;;
2257;SDS011;1136;51.574;7.706;2023-04-24T11:35:30;6.13;;;5.53;;
2257;SDS011;1136;51.574;7.706;2023-04-24T11:38:03;7.53;;;6.37;;
2257;SDS011;1136;51.574;7.706;2023-04-24T11:40:34;13.43;;;6.50;;
2257;SDS011;1136;51.574;7.706;2023-04-24T11:43:01;7.50;;;6.67;;
2257;SDS011;1136;51.574;7.706;2023-04-24T11:45:28;8.07;;;6.70;;
2257;SDS011;1136;51.574;7.706;2023-04-24T11:47:56;8.17;;;7.37;;
2257;SDS011;1136;51.574;7.706;2023-04-24T11:50:24;10.83;;;7.00;;
2257;SDS011;1136;51.574;7.706;2023-04-24T11:52:55;8.33;;;6.67;;
2257;SDS011;1136;51.574;7.706;2023-04-24T11:57:50;10.87;;;7.30;;
2257;SDS011;1136;51.574;7.706;2023-04-24T12:00:23;8.37;;;6.87;;
2257;SDS011;1136;51.574;7.706;2023-04-24T12:02:51;12.43;;;7.57;;
2257;SDS011;1136;51.574;7.706;2023-04-24T12:05:27;15.63;;;7.70;;
2257;SDS011;1136;51.574;7.706;2023-04-24T12:07:54;11.00;;;7.97;;
2257;SDS011;1136;51.574;7.706;2023-04-24T12:10:21;10.03;;;9.03;;
2257;SDS011;1136;51.574;7.706;2023-04-24T12:12:49;8.40;;;7.70;;
2257;SDS011;1136;51.574;7.706;2023-04-24T12:15:18;11.30;;;7.93;;
2257;SDS011;1136;51.574;7.706;2023-04-24T12:17:46;13.50;;;9.00;;
2257;SDS011;1136;51.574;7.706;2023-04-24T12:20:13;12.37;;;7.93;;
2257;SDS011;1136;51.574;7.706;2023-04-24T12:22:50;12.90;;;8.83;;
2257;SDS011;1136;51.574;7.706;2023-04-24T12:25:20;12.53;;;8.87;;
2257;SDS011;1136;51.574;7.706;2023-04-24T12:30:30;19.07;;;9.70;;
2257;SDS011;1136;51.574;7.706;2023-04-24T12:32:58;13.87;;;8.77;;
2257;SDS011;1136;51.574;7.706;2023-04-24T12:35:27;16.40;;;8.70;;
2257;SDS011;1136;51.574;7.706;2023-04-24T12:37:55;12.50;;;8.90;;
2257;SDS011;1136;51.574;7.706;2023-04-24T12:40:21;11.43;;;9.47;;
2257;SDS011;1136;51.574;7.706;2023-04-24T12:42:49;16.30;;;10.40;;
2257;SDS011;1136;51.574;7.706;2023-04-24T12:45:17;15.13;;;10.47;;
2257;SDS011;1136;51.574;7.706;2023-04-24T12:47:45;13.77;;;9.47;;
2257;SDS011;1136;51.574;7.706;2023-04-24T12:50:13;12.20;;;9.47;;
2257;SDS011;1136;51.574;7.706;2023-04-24T12:52:41;15.93;;;10.50;;
2257;SDS011;1136;51.574;7.706;2023-04-24T12:55:08;12.17;;;7.97;;
2257;SDS011;1136;51.574;7.706;2023-04-24T12:57:36;12.77;;;7.73;;
2257;SDS011;1136;51.574;7.706;2023-04-24T13:00:04;9.13;;;6.33;;
2257;SDS011;1136;51.574;7.706;2023-04-24T13:02:33;11.93;;;6.93;;
2257;SDS011;1136;51.574;7.706;2023-04-24T13:05:00;15.00;;;7.00;;
2257;SDS011;1136;51.574;7.706;2023-04-24T13:07:27;12.00;;;7.30;;
2257;SDS011;1136;51.574;7.706;2023-04-24T13:09:54;12.90;;;6.57;;
2257;SDS011;1136;51.574;7.706;2023-04-24T13:12:22;7.10;;;5.63;;
2257;SDS011;1136;51.574;7.706;2023-04-24T13:14:50;6.30;;;5.80;;
2257;SDS011;1136;51.574;7.706;2023-04-24T13:17:17;7.53;;;6.30;;
2257;SDS011;1136;51.574;7.706;2023-04-24T13:19:44;8.37;;;5.63;;
2257;SDS011;1136;51.574;7.706;2023-04-24T13:22:11;7.30;;;5.23;;
2257;SDS011;1136;51.574;7.706;2023-04-24T13:24:39;8.47;;;5.57;;
2257;SDS011;1136;51.574;7.706;2023-04-24T13:27:08;8.00;;;5.67;;
2257;SDS011;1136;51.574;7.706;2023-04-24T13:29:36;7.00;;;4.90;;
2257;SDS011;1136;51.574;7.706;2023-04-24T13:32:03;9.03;;;5.10;;
2257;SDS011;1136;51.574;7.706;2023-04-24T13:34:30;7.30;;;4.83;;
2257;SDS011;1136;51.574;7.706;2023-04-24T13:36:57;5.90;;;4.43;;
2257;SDS011;1136;51.574;7.706;2023-04-24T13:39:24;7.43;;;4.67;;
2257;SDS011;1136;51.574;7.706;2023-04-24T13:41:52;10.47;;;5.00;;
2257;SDS011;1136;51.574;7.706;2023-04-24T13:44:19;14.93;;;5.40;;
2257;SDS011;1136;51.574;7.706;2023-04-24T13:46:47;8.53;;;5.47;;
2257;SDS011;1136;51.574;7.706;2023-04-24T13:49:15;5.47;;;4.70;;
2257;SDS011;1136;51.574;7.706;2023-04-24T13:51:42;6.53;;;5.07;;
2257;SDS011;1136;51.574;7.706;2023-04-24T13:54:09;7.13;;;4.97;;
2257;SDS011;1136;51.574;7.706;2023-04-24T13:56:36;5.33;;;4.83;;
2257;SDS011;1136;51.574;7.706;2023-04-24T13:59:02;5.17;;;4.30;;
2257;SDS011;1136;51.574;7.706;2023-04-24T14:01:29;6.70;;;4.17;;
2257;SDS011;1136;51.574;7.706;2023-04-24T14:03:56;4.43;;;4.03;;
2257;SDS011;1136;51.574;7.706;2023-04-24T14:06:23;7.50;;;3.50;;
2257;SDS011;1136;51.574;7.706;2023-04-24T14:08:50;3.50;;;3.20;;
2257;SDS011;1136;51.574;7.706;2023-04-24T14:11:16;2.90;;;2.70;;
2257;SDS011;1136;51.574;7.706;2023-04-24T14:13:44;7.67;;;3.03;;
2257;SDS011;1136;51.574;7.706;2023-04-24T14:16:11;4.57;;;3.63;;
2257;SDS011;1136;51.574;7.706;2023-04-24T14:18:38;5.50;;;4.13;;
2257;SDS011;1136;51.574;7.706;2023-04-24T14:21:05;4.57;;;4.17;;
2257;SDS011;1136;51.574;7.706;2023-04-24T14:23:32;4.70;;;3.67;;
2257;SDS011;1136;51.574;7.706;2023-04-24T14:25:58;5.70;;;4.23;;
2257;SDS011;1136;51.574;7.706;2023-04-24T14:28:25;4.00;;;3.80;;
2257;SDS011;1136;51.574;7.706;2023-04-24T14:30:52;4.20;;;3.80;;
2257;SDS011;1136;51.574;7.706;2023-04-24T14:33:19;4.53;;;4.13;;
2257;SDS011;1136;51.574;7.706;2023-04-24T14:35:46;5.63;;;3.93;;
2257;SDS011;1136;51.574;7.706;2023-04-24T14:38:14;7.00;;;4.13;;
2257;SDS011;1136;51.574;7.706;2023-04-24T14:40:41;7.40;;;4.27;;
2257;SDS011;1136;51.574;7.706;2023-04-24T14:43:11;4.23;;;3.93;;
2257;SDS011;1136;51.574;7.706;2023-04-24T14:45:37;4.77;;;3.97;;
2257;SDS011;1136;51.574;7.706;2023-04-24T14:48:04;4.33;;;3.93;;
2257;SDS011;1136;51.574;7.706;2023-04-24T14:50:31;4.77;;;4.13;;
2257;SDS011;1136;51.574;7.706;2023-04-24T14:52:57;4.97;;;4.47;;
2257;SDS011;1136;51.574;7.706;2023-04-24T14:55:24;10.07;;;4.53;;
2257;SDS011;1136;51.574;7.706;2023-04-24T14:57:52;10.67;;;3.90;;
2257;SDS011;1136;51.574;7.706;2023-04-24T15:00:19;3.60;;;3.40;;
2257;SDS011;1136;51.574;7.706;2023-04-24T15:02:46;5.13;;;4.63;;
2257;SDS011;1136;51.574;7.706;2023-04-24T15:05:13;6.53;;;4.90;;
2257;SDS011;1136;51.574;7.706;2023-04-24T15:07:40;4.83;;;4.43;;
2257;SDS011;1136;51.574;7.706;2023-04-24T15:10:08;4.80;;;4.43;;
2257;SDS011;1136;51.574;7.706;2023-04-24T15:12:35;5.40;;;4.90;;
2257;SDS011;1136;51.574;7.706;2023-04-24T15:15:01;5.43;;;4.50;;
2257;SDS011;1136;51.574;7.706;2023-04-24T15:17:28;5.20;;;4.33;;
2257;SDS011;1136;51.574;7.706;2023-04-24T15:19:54;7.90;;;5.03;;
2257;SDS011;1136;51.574;7.706;2023-04-24T15:22:21;3.83;;;3.53;;
2257;SDS011;1136;51.574;7.706;2023-04-24T15:24:47;5.10;;;4.43;;